59CO weather

Comanche Livestock Airport
Strasburg, Colorado, United States

Public forecast

Using degrees Fahrenheit for public forecast. Weather courtesy of forecast.io.

METAR (pilot weather report)

Closest report is Front Range Airport, 10.8 nm (20.0 km) WSW. Retrieved 2019/04/23 20:47 UTC (46 minutes ago):

KFTG 232047Z 00000KT 10SM FEW045 SCT220 17/04 A3006

TAF (pilot weather forecast)

Closest forecast is Denver International Airport, 16.5 nm (30.6 km) W. Retrieved 2019/04/23 18:42 UTC (3 hours ago):

TAF KDEN 231740Z 2318/2424 22007KT P6SM SCT030 SCT045 FM232000 07008KT P6SM SCT070 FM240200 20010KT P6SM SKC FM240900 24008KT P6SM SKC FM241800 02007KT P6SM FEW100